sensor_id;sensor_type;location;lat;lon;timestamp;pressure;altitude;pressure_sealevel;temperature;humidity
45864;BME280;31579;52.354;16.974;2023-02-22T00:00:40;417.9;;;-146.1;100.0
45864;BME280;31579;52.354;16.974;2023-02-22T00:01:43;417.5;;;-146.1;100.0
45864;BME280;31579;52.354;16.974;2023-02-22T00:02:46;417.0;;;-146.1;100.0
45864;BME280;31579;52.354;16.974;2023-02-22T00:03:49;417.2;;;-146.1;100.0
45864;BME280;31579;52.354;16.974;2023-02-22T00:04:52;417.2;;;-146.1;100.0
45864;BME280;31579;52.354;16.974;2023-02-22T00:05:56;417.1;;;-146.1;100.0
45864;BME280;31579;52.354;16.974;2023-02-22T00:06:58;417.3;;;-146.1;100.0
45864;BME280;31579;52.354;16.974;2023-02-22T00:08:02;399.6;;;-146.1;100.0
45864;BME280;31579;52.354;16.974;2023-02-22T00:09:05;410.7;;;-146.1;100.0
45864;BME280;31579;52.354;16.974;2023-02-22T00:10:08;412.8;;;-146.1;100.0
45864;BME280;31579;52.354;16.974;2023-02-22T00:11:11;414.2;;;-146.1;100.0
45864;BME280;31579;52.354;16.974;2023-02-22T00:12:14;415.4;;;-146.1;100.0
45864;BME280;31579;52.354;16.974;2023-02-22T00:13:17;416.6;;;-146.1;100.0
45864;BME280;31579;52.354;16.974;2023-02-22T00:14:20;417.4;;;-146.1;100.0
45864;BME280;31579;52.354;16.974;2023-02-22T00:15:23;418.1;;;-146.1;100.0
45864;BME280;31579;52.354;16.974;2023-02-22T00:16:26;417.9;;;-146.1;100.0
45864;BME280;31579;52.354;16.974;2023-02-22T00:17:29;418.1;;;-146.1;100.0
45864;BME280;31579;52.354;16.974;2023-02-22T00:18:32;418.0;;;-146.1;100.0
45864;BME280;31579;52.354;16.974;2023-02-22T00:19:35;417.9;;;-146.1;100.0
45864;BME280;31579;52.354;16.974;2023-02-22T00:20:38;418.0;;;-146.1;100.0
45864;BME280;31579;52.354;16.974;2023-02-22T00:21:41;418.3;;;-146.1;100.0
45864;BME280;31579;52.354;16.974;2023-02-22T00:22:46;400.4;;;-146.1;100.0
45864;BME280;31579;52.354;16.974;2023-02-22T00:23:48;411.4;;;-146.1;100.0
45864;BME280;31579;52.354;16.974;2023-02-22T00:24:51;413.1;;;-146.1;100.0
45864;BME280;31579;52.354;16.974;2023-02-22T00:25:54;414.7;;;-146.1;100.0
45864;BME280;31579;52.354;16.974;2023-02-22T00:26:57;415.3;;;-146.1;100.0
45864;BME280;31579;52.354;16.974;2023-02-22T00:28:00;415.9;;;-146.1;100.0
45864;BME280;31579;52.354;16.974;2023-02-22T00:29:03;416.5;;;-146.1;100.0
45864;BME280;31579;52.354;16.974;2023-02-22T00:30:22;385.3;;;-146.1;100.0
45864;BME280;31579;52.354;16.974;2023-02-22T00:31:24;391.8;;;-146.1;100.0
45864;BME280;31579;52.354;16.974;2023-02-22T00:32:27;398.2;;;-146.1;100.0
45864;BME280;31579;52.354;16.974;2023-02-22T00:33:30;402.8;;;-146.1;100.0
45864;BME280;31579;52.354;16.974;2023-02-22T00:34:33;405.5;;;-146.1;100.0
45864;BME280;31579;52.354;16.974;2023-02-22T00:35:36;408.5;;;-146.1;100.0
45864;BME280;31579;52.354;16.974;2023-02-22T00:36:46;410.7;;;-146.1;100.0
45864;BME280;31579;52.354;16.974;2023-02-22T00:37:42;411.9;;;-146.1;100.0
45864;BME280;31579;52.354;16.974;2023-02-22T00:38:45;413.6;;;-146.1;100.0
45864;BME280;31579;52.354;16.974;2023-02-22T00:39:48;414.6;;;-146.1;100.0
45864;BME280;31579;52.354;16.974;2023-02-22T00:40:51;416.1;;;-146.1;100.0
45864;BME280;31579;52.354;16.974;2023-02-22T00:41:54;417.2;;;-146.1;100.0
45864;BME280;31579;52.354;16.974;2023-02-22T00:42:58;418.3;;;-146.1;100.0
45864;BME280;31579;52.354;16.974;2023-02-22T00:44:01;396.5;;;-146.1;100.0
45864;BME280;31579;52.354;16.974;2023-02-22T00:45:04;410.5;;;-146.1;100.0
45864;BME280;31579;52.354;16.974;2023-02-22T00:46:07;413.4;;;-146.1;100.0
45864;BME280;31579;52.354;16.974;2023-02-22T00:47:10;415.8;;;-146.1;100.0
45864;BME280;31579;52.354;16.974;2023-02-22T00:48:13;417.6;;;-146.1;100.0
45864;BME280;31579;52.354;16.974;2023-02-22T00:49:17;395.6;;;-146.1;100.0
45864;BME280;31579;52.354;16.974;2023-02-22T00:50:20;410.6;;;-146.1;100.0
45864;BME280;31579;52.354;16.974;2023-02-22T00:51:25;412.8;;;-146.1;100.0
45864;BME280;31579;52.354;16.974;2023-02-22T00:52:26;414.9;;;-146.1;100.0
45864;BME280;31579;52.354;16.974;2023-02-22T00:53:29;417.4;;;-146.1;100.0
45864;BME280;31579;52.354;16.974;2023-02-22T00:54:32;420.3;;;-146.1;100.0
45864;BME280;31579;52.354;16.974;2023-02-22T00:55:35;421.9;;;-146.1;100.0
45864;BME280;31579;52.354;16.974;2023-02-22T00:56:38;423.1;;;-146.1;100.0
45864;BME280;31579;52.354;16.974;2023-02-22T00:57:41;424.3;;;-146.1;100.0
45864;BME280;31579;52.354;16.974;2023-02-22T00:58:45;404.6;;;-146.1;100.0
45864;BME280;31579;52.354;16.974;2023-02-22T00:59:49;388.8;;;-146.1;100.0
45864;BME280;31579;52.354;16.974;2023-02-22T01:00:52;409.7;;;-146.1;100.0
45864;BME280;31579;52.354;16.974;2023-02-22T01:01:55;414.3;;;-146.1;100.0
45864;BME280;31579;52.354;16.974;2023-02-22T01:02:59;387.6;;;-146.1;100.0
45864;BME280;31579;52.354;16.974;2023-02-22T01:04:02;407.9;;;-146.1;100.0
45864;BME280;31579;52.354;16.974;2023-02-22T01:05:06;375.0;;;-146.1;100.0
45864;BME280;31579;52.354;16.974;2023-02-22T01:06:09;401.6;;;-146.1;100.0
45864;BME280;31579;52.354;16.974;2023-02-22T01:07:12;407.3;;;-146.1;100.0
45864;BME280;31579;52.354;16.974;2023-02-22T01:08:15;410.9;;;-146.1;100.0
45864;BME280;31579;52.354;16.974;2023-02-22T01:09:18;413.7;;;-146.1;100.0
45864;BME280;31579;52.354;16.974;2023-02-22T01:10:22;415.3;;;-146.1;100.0
45864;BME280;31579;52.354;16.974;2023-02-22T01:11:24;416.4;;;-146.1;100.0
45864;BME280;31579;52.354;16.974;2023-02-22T01:12:27;417.7;;;-146.1;100.0
45864;BME280;31579;52.354;16.974;2023-02-22T01:13:31;419.8;;;-146.1;100.0
45864;BME280;31579;52.354;16.974;2023-02-22T01:14:35;394.2;;;-146.1;100.0
45864;BME280;31579;52.354;16.974;2023-02-22T01:15:39;409.4;;;-146.1;100.0
45864;BME280;31579;52.354;16.974;2023-02-22T01:16:41;411.6;;;-146.1;100.0
45864;BME280;31579;52.354;16.974;2023-02-22T01:17:52;244.7;;;-146.1;100.0
45864;BME280;31579;52.354;16.974;2023-02-22T01:18:55;335.3;;;-146.1;100.0
45864;BME280;31579;52.354;16.974;2023-02-22T01:19:58;366.9;;;-146.1;100.0
45864;BME280;31579;52.354;16.974;2023-02-22T01:21:01;414.1;;;-146.1;100.0
45864;BME280;31579;52.354;16.974;2023-02-22T01:22:04;412.9;;;-146.1;100.0
45864;BME280;31579;52.354;16.974;2023-02-22T01:23:07;416.4;;;-146.1;100.0
45864;BME280;31579;52.354;16.974;2023-02-22T01:24:10;418.2;;;-146.1;100.0
45864;BME280;31579;52.354;16.974;2023-02-22T01:25:15;420.2;;;-146.1;100.0
45864;BME280;31579;52.354;16.974;2023-02-22T01:26:16;422.2;;;-146.1;100.0
45864;BME280;31579;52.354;16.974;2023-02-22T01:27:20;396.2;;;-146.1;100.0
45864;BME280;31579;52.354;16.974;2023-02-22T01:28:24;414.1;;;-146.1;100.0
45864;BME280;31579;52.354;16.974;2023-02-22T01:29:27;417.7;;;-146.1;100.0
45864;BME280;31579;52.354;16.974;2023-02-22T01:30:32;420.5;;;-146.1;100.0
45864;BME280;31579;52.354;16.974;2023-02-22T01:31:34;422.3;;;-146.1;100.0
45864;BME280;31579;52.354;16.974;2023-02-22T01:32:38;423.3;;;-146.1;100.0
45864;BME280;31579;52.354;16.974;2023-02-22T01:33:41;396.2;;;-146.1;100.0
45864;BME280;31579;52.354;16.974;2023-02-22T01:34:44;413.9;;;-146.1;100.0
45864;BME280;31579;52.354;16.974;2023-02-22T01:35:47;414.8;;;-146.1;100.0
45864;BME280;31579;52.354;16.974;2023-02-22T01:36:51;419.8;;;-146.1;100.0
45864;BME280;31579;52.354;16.974;2023-02-22T01:37:55;421.1;;;-146.1;100.0
45864;BME280;31579;52.354;16.974;2023-02-22T01:38:57;422.2;;;-146.1;100.0
45864;BME280;31579;52.354;16.974;2023-02-22T01:40:03;395.7;;;-146.1;100.0
45864;BME280;31579;52.354;16.974;2023-02-22T01:41:04;413.5;;;-146.1;100.0
45864;BME280;31579;52.354;16.974;2023-02-22T01:42:07;416.8;;;-146.1;100.0
45864;BME280;31579;52.354;16.974;2023-02-22T01:44:36;422.0;;;-146.1;100.0
45864;BME280;31579;52.354;16.974;2023-02-22T01:46:23;392.5;;;-146.1;100.0
45864;BME280;31579;52.354;16.974;2023-02-22T01:47:23;411.3;;;-146.1;100.0
45864;BME280;31579;52.354;16.974;2023-02-22T01:50:33;416.1;;;-146.1;100.0
45864;BME280;31579;52.354;16.974;2023-02-22T01:51:36;417.1;;;-146.1;100.0
45864;BME280;31579;52.354;16.974;2023-02-22T01:52:38;417.3;;;-146.1;100.0
45864;BME280;31579;52.354;16.974;2023-02-22T01:53:46;417.5;;;-146.1;100.0
45864;BME280;31579;52.354;16.974;2023-02-22T01:54:45;417.5;;;-146.1;100.0
45864;BME280;31579;52.354;16.974;2023-02-22T01:55:47;414.7;;;-146.1;100.0
45864;BME280;31579;52.354;16.974;2023-02-22T01:58:02;303.7;;;-146.1;100.0
45864;BME280;31579;52.354;16.974;2023-02-22T01:59:07;329.6;;;-146.1;100.0
45864;BME280;31579;52.354;16.974;2023-02-22T02:00:10;348.7;;;-146.1;100.0
45864;BME280;31579;52.354;16.974;2023-02-22T02:01:11;362.1;;;-146.1;100.0
45864;BME280;31579;52.354;16.974;2023-02-22T02:02:15;373.4;;;-146.1;100.0
45864;BME280;31579;52.354;16.974;2023-02-22T02:03:21;383.0;;;-146.1;100.0
45864;BME280;31579;52.354;16.974;2023-02-22T02:04:21;389.7;;;-146.1;100.0
45864;BME280;31579;52.354;16.974;2023-02-22T02:05:28;391.8;;;-146.1;100.0
45864;BME280;31579;52.354;16.974;2023-02-22T02:06:28;395.5;;;-146.1;100.0
45864;BME280;31579;52.354;16.974;2023-02-22T02:07:30;397.5;;;-146.1;100.0
45864;BME280;31579;52.354;16.974;2023-02-22T02:08:37;398.6;;;-146.1;100.0
45864;BME280;31579;52.354;16.974;2023-02-22T02:10:39;401.4;;;-146.1;100.0
45864;BME280;31579;52.354;16.974;2023-02-22T02:11:42;402.4;;;-146.1;100.0
45864;BME280;31579;52.354;16.974;2023-02-22T02:12:46;403.4;;;-146.1;100.0
45864;BME280;31579;52.354;16.974;2023-02-22T02:13:49;403.8;;;-146.1;100.0
45864;BME280;31579;52.354;16.974;2023-02-22T02:14:51;403.5;;;-146.1;100.0
45864;BME280;31579;52.354;16.974;2023-02-22T02:15:54;428.6;;;-146.1;100.0
45864;BME280;31579;52.354;16.974;2023-02-22T02:16:55;438.3;;;-146.1;100.0
45864;BME280;31579;52.354;16.974;2023-02-22T02:18:03;430.9;;;-146.1;100.0
45864;BME280;31579;52.354;16.974;2023-02-22T02:19:00;442.0;;;-146.1;100.0
45864;BME280;31579;52.354;16.974;2023-02-22T02:20:12;435.5;;;-146.1;100.0
45864;BME280;31579;52.354;16.974;2023-02-22T02:27:33;415.8;;;-146.1;100.0
45864;BME280;31579;52.354;16.974;2023-02-22T02:31:51;403.6;;;-146.1;100.0
45864;BME280;31579;52.354;16.974;2023-02-22T02:34:49;397.4;;;-146.1;100.0
45864;BME280;31579;52.354;16.974;2023-02-22T02:36:57;222.8;;;-146.1;100.0
45864;BME280;31579;52.354;16.974;2023-02-22T02:42:11;367.2;;;-146.1;100.0
45864;BME280;31579;52.354;16.974;2023-02-22T02:45:22;362.3;;;-146.1;100.0
45864;BME280;31579;52.354;16.974;2023-02-22T02:47:26;361.4;;;-146.1;100.0
45864;BME280;31579;52.354;16.974;2023-02-22T02:48:28;360.0;;;-146.1;100.0
45864;BME280;31579;52.354;16.974;2023-02-22T02:50:44;349.4;;;-146.1;100.0
45864;BME280;31579;52.354;16.974;2023-02-22T02:51:39;348.0;;;-146.1;100.0
45864;BME280;31579;52.354;16.974;2023-02-22T02:52:40;346.0;;;-146.1;100.0
45864;BME280;31579;52.354;16.974;2023-02-22T02:53:45;344.5;;;-146.1;100.0
45864;BME280;31579;52.354;16.974;2023-02-22T02:54:46;342.1;;;-146.1;100.0
45864;BME280;31579;52.354;16.974;2023-02-22T02:55:49;339.6;;;-146.1;100.0
45864;BME280;31579;52.354;16.974;2023-02-22T02:56:53;336.4;;;-146.1;100.0
45864;BME280;31579;52.354;16.974;2023-02-22T02:57:55;332.8;;;-146.1;100.0
45864;BME280;31579;52.354;16.974;2023-02-22T02:58:58;329.9;;;-146.1;100.0
45864;BME280;31579;52.354;16.974;2023-02-22T03:00:00;406.8;;;-146.1;100.0
45864;BME280;31579;52.354;16.974;2023-02-22T03:01:04;382.9;;;-146.1;100.0
45864;BME280;31579;52.354;16.974;2023-02-22T03:07:30;339.0;;;-146.1;100.0
45864;BME280;31579;52.354;16.974;2023-02-22T03:08:30;333.6;;;-146.1;100.0
45864;BME280;31579;52.354;16.974;2023-02-22T03:11:38;319.7;;;-146.1;100.0
45864;BME280;31579;52.354;16.974;2023-02-22T03:15:50;306.5;;;-146.1;100.0
45864;BME280;31579;52.354;16.974;2023-02-22T03:16:55;306.6;;;-146.1;100.0
45864;BME280;31579;52.354;16.974;2023-02-22T03:18:00;303.3;;;-146.1;100.0
45864;BME280;31579;52.354;16.974;2023-02-22T03:20:03;216.8;;;-146.1;100.0
45864;BME280;31579;52.354;16.974;2023-02-22T03:26:30;157.3;;;-146.1;100.0
45864;BME280;31579;52.354;16.974;2023-02-22T03:27:33;152.4;;;-146.1;100.0
45864;BME280;31579;52.354;16.974;2023-02-22T03:28:34;152.5;;;-146.1;100.0
45864;BME280;31579;52.354;16.974;2023-02-22T03:29:38;154.6;;;-146.1;100.0
45864;BME280;31579;52.354;16.974;2023-02-22T03:30:41;156.3;;;-146.1;100.0
45864;BME280;31579;52.354;16.974;2023-02-22T03:31:44;158.8;;;-146.1;100.0
45864;BME280;31579;52.354;16.974;2023-02-22T03:32:47;160.4;;;-146.1;100.0
45864;BME280;31579;52.354;16.974;2023-02-22T03:33:53;162.3;;;-146.1;100.0
45864;BME280;31579;52.354;16.974;2023-02-22T03:34:56;162.3;;;-146.1;100.0
45864;BME280;31579;52.354;16.974;2023-02-22T03:35:57;163.5;;;-146.1;100.0
45864;BME280;31579;52.354;16.974;2023-02-22T03:36:58;161.2;;;-146.1;100.0
45864;BME280;31579;52.354;16.974;2023-02-22T03:38:02;169.6;;;-146.1;100.0
45864;BME280;31579;52.354;16.974;2023-02-22T03:39:06;164.2;;;-146.1;100.0
45864;BME280;31579;52.354;16.974;2023-02-22T03:40:09;150.5;;;-146.1;100.0
45864;BME280;31579;52.354;16.974;2023-02-22T03:41:11;144.3;;;-146.1;100.0
45864;BME280;31579;52.354;16.974;2023-02-22T03:42:14;163.7;;;-146.1;100.0
45864;BME280;31579;52.354;16.974;2023-02-22T03:43:16;206.2;;;-146.1;100.0
45864;BME280;31579;52.354;16.974;2023-02-22T03:44:20;185.7;;;-146.1;100.0
45864;BME280;31579;52.354;16.974;2023-02-22T03:45:22;180.9;;;-146.1;100.0
45864;BME280;31579;52.354;16.974;2023-02-22T03:46:25;176.9;;;-146.1;100.0
45864;BME280;31579;52.354;16.974;2023-02-22T03:47:31;173.6;;;-146.1;100.0
45864;BME280;31579;52.354;16.974;2023-02-22T03:49:36;170.1;;;-146.1;100.0
45864;BME280;31579;52.354;16.974;2023-02-22T03:50:38;168.8;;;-146.1;100.0
45864;BME280;31579;52.354;16.974;2023-02-22T03:51:41;167.5;;;-146.1;100.0
45864;BME280;31579;52.354;16.974;2023-02-22T03:52:44;166.0;;;-146.1;100.0
45864;BME280;31579;52.354;16.974;2023-02-22T03:53:47;165.0;;;-146.1;100.0
45864;BME280;31579;52.354;16.974;2023-02-22T03:54:51;164.3;;;-146.1;100.0
45864;BME280;31579;52.354;16.974;2023-02-22T03:55:53;163.0;;;-146.1;100.0
45864;BME280;31579;52.354;16.974;2023-02-22T03:56:57;162.1;;;-146.1;100.0
45864;BME280;31579;52.354;16.974;2023-02-22T03:57:59;160.6;;;-146.1;100.0
45864;BME280;31579;52.354;16.974;2023-02-22T03:59:04;191.4;;;-146.1;100.0
45864;BME280;31579;52.354;16.974;2023-02-22T04:00:07;172.8;;;-146.1;100.0
45864;BME280;31579;52.354;16.974;2023-02-22T04:01:07;170.0;;;-146.1;100.0
45864;BME280;31579;52.354;16.974;2023-02-22T04:02:10;169.5;;;-146.1;100.0
45864;BME280;31579;52.354;16.974;2023-02-22T04:03:14;191.2;;;-146.1;100.0
45864;BME280;31579;52.354;16.974;2023-02-22T04:04:18;177.0;;;-146.1;100.0
45864;BME280;31579;52.354;16.974;2023-02-22T04:05:21;163.4;;;-146.1;100.0
45864;BME280;31579;52.354;16.974;2023-02-22T04:06:24;157.1;;;-146.1;100.0
45864;BME280;31579;52.354;16.974;2023-02-22T04:07:27;152.6;;;-146.1;100.0
45864;BME280;31579;52.354;16.974;2023-02-22T04:08:31;148.6;;;-146.1;100.0
45864;BME280;31579;52.354;16.974;2023-02-22T04:09:34;147.0;;;-146.1;100.0
45864;BME280;31579;52.354;16.974;2023-02-22T04:10:37;145.8;;;-146.1;100.0
45864;BME280;31579;52.354;16.974;2023-02-22T04:11:40;143.2;;;-146.1;100.0
45864;BME280;31579;52.354;16.974;2023-02-22T04:12:43;141.1;;;-146.1;100.0
45864;BME280;31579;52.354;16.974;2023-02-22T04:13:46;139.8;;;-146.1;100.0
45864;BME280;31579;52.354;16.974;2023-02-22T04:14:49;137.8;;;-146.1;100.0
45864;BME280;31579;52.354;16.974;2023-02-22T04:15:52;136.0;;;-146.1;100.0
45864;BME280;31579;52.354;16.974;2023-02-22T04:16:55;134.3;;;-146.1;100.0
45864;BME280;31579;52.354;16.974;2023-02-22T04:17:58;132.6;;;-146.1;100.0
45864;BME280;31579;52.354;16.974;2023-02-22T04:19:02;156.6;;;-146.1;100.0
45864;BME280;31579;52.354;16.974;2023-02-22T04:20:05;145.1;;;-146.1;100.0
45864;BME280;31579;52.354;16.974;2023-02-22T04:21:08;130.1;;;-146.1;100.0
45864;BME280;31579;52.354;16.974;2023-02-22T04:22:11;121.9;;;-146.1;100.0
45864;BME280;31579;52.354;16.974;2023-02-22T04:23:14;101.5;;;-146.1;100.0
45864;BME280;31579;52.354;16.974;2023-02-22T04:24:17;100.7;;;-146.1;100.0
45864;BME280;31579;52.354;16.974;2023-02-22T04:25:20;108.7;;;-146.1;100.0
45864;BME280;31579;52.354;16.974;2023-02-22T04:26:23;110.8;;;-146.1;100.0
45864;BME280;31579;52.354;16.974;2023-02-22T04:27:26;111.0;;;-146.1;100.0
45864;BME280;31579;52.354;16.974;2023-02-22T04:28:29;110.5;;;-146.1;100.0
45864;BME280;31579;52.354;16.974;2023-02-22T04:29:32;108.6;;;-146.1;100.0
45864;BME280;31579;52.354;16.974;2023-02-22T04:30:36;106.2;;;-146.1;100.0
45864;BME280;31579;52.354;16.974;2023-02-22T04:31:39;105.9;;;-146.1;100.0
45864;BME280;31579;52.354;16.974;2023-02-22T04:32:42;104.1;;;-146.1;100.0
45864;BME280;31579;52.354;16.974;2023-02-22T04:33:45;102.5;;;-146.1;100.0
45864;BME280;31579;52.354;16.974;2023-02-22T04:34:48;101.0;;;-146.1;100.0
45864;BME280;31579;52.354;16.974;2023-02-22T04:35:51;98.7;;;-146.1;100.0
45864;BME280;31579;52.354;16.974;2023-02-22T04:36:54;96.9;;;-146.1;100.0
45864;BME280;31579;52.354;16.974;2023-02-22T04:37:57;95.5;;;-146.1;100.0
45864;BME280;31579;52.354;16.974;2023-02-22T04:39:02;115.5;;;-146.1;100.0
45864;BME280;31579;52.354;16.974;2023-02-22T04:40:05;103.6;;;-146.1;100.0
45864;BME280;31579;52.354;16.974;2023-02-22T04:41:08;90.4;;;-146.1;100.0
45864;BME280;31579;52.354;16.974;2023-02-22T04:42:12;84.1;;;-146.1;100.0
45864;BME280;31579;52.354;16.974;2023-02-22T04:43:14;66.1;;;-146.1;100.0
45864;BME280;31579;52.354;16.974;2023-02-22T04:44:18;66.8;;;-146.1;100.0
45864;BME280;31579;52.354;16.974;2023-02-22T04:45:22;74.1;;;-146.1;100.0
45864;BME280;31579;52.354;16.974;2023-02-22T04:46:25;77.6;;;-146.1;100.0
45864;BME280;31579;52.354;16.974;2023-02-22T04:47:28;78.1;;;-146.1;100.0
45864;BME280;31579;52.354;16.974;2023-02-22T04:48:31;77.3;;;-146.1;100.0
45864;BME280;31579;52.354;16.974;2023-02-22T04:49:34;76.0;;;-146.1;100.0
45864;BME280;31579;52.354;16.974;2023-02-22T04:50:38;73.6;;;-146.1;100.0
45864;BME280;31579;52.354;16.974;2023-02-22T04:51:41;72.6;;;-146.1;100.0
45864;BME280;31579;52.354;16.974;2023-02-22T04:52:45;69.6;;;-146.1;100.0
45864;BME280;31579;52.354;16.974;2023-02-22T04:53:48;68.4;;;-146.1;100.0
45864;BME280;31579;52.354;16.974;2023-02-22T04:54:51;66.8;;;-146.1;100.0
45864;BME280;31579;52.354;16.974;2023-02-22T04:55:54;64.9;;;-146.1;100.0
45864;BME280;31579;52.354;16.974;2023-02-22T04:56:57;62.6;;;-146.1;100.0
45864;BME280;31579;52.354;16.974;2023-02-22T04:58:00;59.8;;;-146.1;100.0
45864;BME280;31579;52.354;16.974;2023-02-22T04:59:03;57.9;;;-146.1;100.0
45864;BME280;31579;52.354;16.974;2023-02-22T05:00:06;56.0;;;-146.1;100.0
45864;BME280;31579;52.354;16.974;2023-02-22T05:01:09;53.9;;;-146.1;100.0
45864;BME280;31579;52.354;16.974;2023-02-22T05:02:12;51.3;;;-146.1;100.0
45864;BME280;31579;52.354;16.974;2023-02-22T05:03:15;48.7;;;-146.1;100.0
45864;BME280;31579;52.354;16.974;2023-02-22T05:04:18;46.7;;;-146.1;100.0
45864;BME280;31579;52.354;16.974;2023-02-22T05:05:21;44.2;;;-146.1;100.0
45864;BME280;31579;52.354;16.974;2023-02-22T05:06:24;42.4;;;-146.1;100.0
45864;BME280;31579;52.354;16.974;2023-02-22T05:07:27;39.8;;;-146.1;100.0
45864;BME280;31579;52.354;16.974;2023-02-22T05:08:30;37.9;;;-146.1;100.0
45864;BME280;31579;52.354;16.974;2023-02-22T05:09:33;34.7;;;-146.1;100.0
45864;BME280;31579;52.354;16.974;2023-02-22T05:10:36;33.4;;;-146.1;100.0
45864;BME280;31579;52.354;16.974;2023-02-22T05:11:39;31.1;;;-146.1;100.0
45864;BME280;31579;52.354;16.974;2023-02-22T05:12:43;27.7;;;-146.1;100.0
45864;BME280;31579;52.354;16.974;2023-02-22T05:13:46;25.5;;;-146.1;100.0
45864;BME280;31579;52.354;16.974;2023-02-22T05:14:49;23.7;;;-146.1;100.0
45864;BME280;31579;52.354;16.974;2023-02-22T05:15:52;21.7;;;-146.1;100.0
45864;BME280;31579;52.354;16.974;2023-02-22T05:16:56;18.6;;;-146.1;100.0
45864;BME280;31579;52.354;16.974;2023-02-22T05:17:59;15.4;;;-146.1;100.0
45864;BME280;31579;52.354;16.974;2023-02-22T05:19:01;7.7;;;-146.1;100.0
45864;BME280;31579;52.354;16.974;2023-02-22T05:20:05;4.1;;;-146.1;100.0
45864;BME280;31579;52.354;16.974;2023-02-22T05:21:08;10.9;;;-146.1;100.0
45864;BME280;31579;52.354;16.974;2023-02-22T05:22:11;12.7;;;-146.1;100.0
45864;BME280;31579;52.354;16.974;2023-02-22T05:23:14;5.1;;;-146.1;100.0
45864;BME280;31579;52.354;16.974;2023-02-22T05:24:17;3.1;;;-146.1;100.0
45864;BME280;31579;52.354;16.974;2023-02-22T05:25:20;10.2;;;-146.1;100.0
45864;BME280;31579;52.354;16.974;2023-02-22T05:26:23;12.0;;;-146.1;100.0
45864;BME280;31579;52.354;16.974;2023-02-22T05:27:26;11.7;;;-146.1;100.0
45864;BME280;31579;52.354;16.974;2023-02-22T05:28:29;11.1;;;-146.1;100.0
45864;BME280;31579;52.354;16.974;2023-02-22T05:29:32;10.3;;;-146.1;100.0
45864;BME280;31579;52.354;16.974;2023-02-22T05:30:35;8.8;;;-146.1;100.0
45864;BME280;31579;52.354;16.974;2023-02-22T05:31:38;7.6;;;-146.1;100.0
45864;BME280;31579;52.354;16.974;2023-02-22T05:32:41;6.6;;;-146.1;100.0
45864;BME280;31579;52.354;16.974;2023-02-22T05:33:44;4.6;;;-146.1;100.0
45864;BME280;31579;52.354;16.974;2023-02-22T05:34:47;3.7;;;-146.1;100.0
45864;BME280;31579;52.354;16.974;2023-02-22T05:35:50;2.4;;;-146.1;100.0
45864;BME280;31579;52.354;16.974;2023-02-22T05:36:53;1.4;;;-146.1;100.0
45864;BME280;31579;52.354;16.974;2023-02-22T05:37:56;0.4;;;-146.1;100.0
45864;BME280;31579;52.354;16.974;2023-02-22T05:39:00;-1.9;;;-146.1;100.0
45864;BME280;31579;52.354;16.974;2023-02-22T05:40:09;66.0;;;-146.1;100.0
45864;BME280;31579;52.354;16.974;2023-02-22T05:41:12;9.4;;;-146.1;100.0
45864;BME280;31579;52.354;16.974;2023-02-22T05:42:15;-5.5;;;-146.1;100.0
45864;BME280;31579;52.354;16.974;2023-02-22T05:43:18;-10.8;;;-146.1;100.0
45864;BME280;31579;52.354;16.974;2023-02-22T05:44:21;-13.1;;;-146.1;100.0
45864;BME280;31579;52.354;16.974;2023-02-22T05:45:24;-14.5;;;-146.1;100.0
45864;BME280;31579;52.354;16.974;2023-02-22T05:46:27;-15.3;;;-146.1;100.0
45864;BME280;31579;52.354;16.974;2023-02-22T05:47:30;-13.6;;;-146.1;100.0
45864;BME280;31579;52.354;16.974;2023-02-22T05:48:33;-13.3;;;-146.1;100.0
45864;BME280;31579;52.354;16.974;2023-02-22T05:49:37;-14.1;;;-146.1;100.0
45864;BME280;31579;52.354;16.974;2023-02-22T05:50:40;-13.6;;;-146.1;100.0
45864;BME280;31579;52.354;16.974;2023-02-22T05:51:43;-11.7;;;-146.1;100.0
45864;BME280;31579;52.354;16.974;2023-02-22T05:52:46;-11.0;;;-146.1;100.0
45864;BME280;31579;52.354;16.974;2023-02-22T05:53:49;-10.2;;;-146.1;100.0
45864;BME280;31579;52.354;16.974;2023-02-22T05:54:52;-9.4;;;-146.1;100.0
45864;BME280;31579;52.354;16.974;2023-02-22T05:55:55;-8.4;;;-146.1;100.0
45864;BME280;31579;52.354;16.974;2023-02-22T05:56:58;-7.4;;;-146.1;100.0
45864;BME280;31579;52.354;16.974;2023-02-22T05:58:02;6.0;;;-146.1;100.0
45864;BME280;31579;52.354;16.974;2023-02-22T05:59:05;0.4;;;-146.1;100.0
45864;BME280;31579;52.354;16.974;2023-02-22T06:00:07;-12.1;;;-146.1;100.0
45864;BME280;31579;52.354;16.974;2023-02-22T06:01:10;-14.4;;;-146.1;100.0
45864;BME280;31579;52.354;16.974;2023-02-22T06:02:13;-5.2;;;-146.1;100.0
45864;BME280;31579;52.354;16.974;2023-02-22T06:03:16;-0.6;;;-146.1;100.0
45864;BME280;31579;52.354;16.974;2023-02-22T06:04:19;1.9;;;-146.1;100.0
45864;BME280;31579;52.354;16.974;2023-02-22T06:05:22;3.2;;;-146.1;100.0
45864;BME280;31579;52.354;16.974;2023-02-22T06:06:25;4.1;;;-146.1;100.0
45864;BME280;31579;52.354;16.974;2023-02-22T06:07:28;5.8;;;-146.1;100.0
45864;BME280;31579;52.354;16.974;2023-02-22T06:08:31;6.6;;;-146.1;100.0
45864;BME280;31579;52.354;16.974;2023-02-22T06:09:34;8.1;;;-146.1;100.0
45864;BME280;31579;52.354;16.974;2023-02-22T06:10:37;9.6;;;-146.1;100.0
45864;BME280;31579;52.354;16.974;2023-02-22T06:11:40;10.0;;;-146.1;100.0
45864;BME280;31579;52.354;16.974;2023-02-22T06:12:43;10.9;;;-146.1;100.0
45864;BME280;31579;52.354;16.974;2023-02-22T06:13:53;82.0;;;-146.1;100.0
45864;BME280;31579;52.354;16.974;2023-02-22T06:14:56;22.1;;;-146.1;100.0
45864;BME280;31579;52.354;16.974;2023-02-22T06:15:59;2.7;;;-146.1;100.0
45864;BME280;31579;52.354;16.974;2023-02-22T06:17:02;0.1;;;-146.1;100.0
45864;BME280;31579;52.354;16.974;2023-02-22T06:18:06;2.8;;;-146.1;100.0
45864;BME280;31579;52.354;16.974;2023-02-22T06:19:09;-8.5;;;-146.1;100.0
45864;BME280;31579;52.354;16.974;2023-02-22T06:20:13;-6.1;;;-146.1;100.0
45864;BME280;31579;52.354;16.974;2023-02-22T06:21:15;-3.5;;;-146.1;100.0
45864;BME280;31579;52.354;16.974;2023-02-22T06:22:18;-0.7;;;-146.1;100.0
45864;BME280;31579;52.354;16.974;2023-02-22T06:23:21;2.7;;;-146.1;100.0
45864;BME280;31579;52.354;16.974;2023-02-22T06:24:25;5.2;;;-146.1;100.0
45864;BME280;31579;52.354;16.974;2023-02-22T06:25:29;8.9;;;-146.1;100.0
45864;BME280;31579;52.354;16.974;2023-02-22T06:26:31;12.1;;;-146.1;100.0